createdAt,value
2018-09-29T00:00:27.802Z,102579.89
2018-09-29T00:02:56.273Z,102580.59
2018-09-29T00:05:24.698Z,102586.05
2018-09-29T00:07:52.993Z,102580.34
2018-09-29T00:10:21.224Z,102582.25
2018-09-29T00:12:49.529Z,102578.83
2018-09-29T00:15:18.016Z,102581.72
2018-09-29T00:17:46.165Z,102583.63
2018-09-29T00:20:14.607Z,102583.78
2018-09-29T00:22:43.273Z,102589.27
2018-09-29T00:25:11.761Z,102586.20
2018-09-29T00:27:39.930Z,102589.44
2018-09-29T00:30:08.097Z,102597.12
2018-09-29T00:32:36.297Z,102595.84
2018-09-29T00:35:04.681Z,102591.55
2018-09-29T00:37:32.812Z,102591.28
2018-09-29T00:40:01.454Z,102587.35
2018-09-29T00:42:29.615Z,102587.91
2018-09-29T00:44:57.996Z,102592.50
2018-09-29T00:47:26.478Z,102585.50
2018-09-29T00:49:54.644Z,102585.59
2018-09-29T00:52:23.162Z,102583.39
2018-09-29T00:54:51.318Z,102580.35
2018-09-29T00:57:19.457Z,102583.61
2018-09-29T00:59:47.770Z,102587.27
2018-09-29T01:02:16.328Z,102586.08
2018-09-29T01:04:45.049Z,102587.49
2018-09-29T01:07:13.185Z,102585.30
2018-09-29T01:09:41.672Z,102577.89
2018-09-29T01:12:10.150Z,102578.02
2018-09-29T01:14:38.705Z,102573.17
2018-09-29T01:17:06.920Z,102575.06
2018-09-29T01:19:35.762Z,102576.55
2018-09-29T01:22:04.464Z,102570.83
2018-09-29T01:24:32.988Z,102578.38
2018-09-29T01:27:01.933Z,102582.87
2018-09-29T01:29:30.352Z,102583.84
2018-09-29T01:31:59.081Z,102585.31
2018-09-29T01:34:27.584Z,102583.58
2018-09-29T01:36:56.103Z,102584.50
2018-09-29T01:39:24.293Z,102589.96
2018-09-29T01:41:52.444Z,102590.15
2018-09-29T01:44:20.605Z,102590.83
2018-09-29T01:46:48.777Z,102586.16
2018-09-29T01:49:16.941Z,102591.45
2018-09-29T01:51:45.406Z,102598.14
2018-09-29T01:54:13.586Z,102586.61
2018-09-29T01:56:42.077Z,102592.08
2018-09-29T01:59:10.562Z,102582.48
2018-09-29T02:01:39.058Z,102595.36
2018-09-29T02:04:07.256Z,102593.25
2018-09-29T02:06:35.677Z,102592.46
2018-09-29T02:09:04.262Z,102596.10
2018-09-29T02:11:32.429Z,102582.84
2018-09-29T02:14:00.581Z,102578.44
2018-09-29T02:16:29.078Z,102570.95
2018-09-29T02:18:57.526Z,102573.63
2018-09-29T02:21:26.013Z,102578.13
2018-09-29T02:23:54.491Z,102576.44
2018-09-29T02:26:22.833Z,102584.92
2018-09-29T02:28:51.047Z,102582.25
2018-09-29T02:31:19.384Z,102580.08
2018-09-29T02:33:47.609Z,102577.45
2018-09-29T02:36:25.269Z,102576.19
2018-09-29T02:38:53.517Z,102579.77
2018-09-29T02:41:21.745Z,102573.15
2018-09-29T02:43:49.983Z,102574.55
2018-09-29T02:46:18.142Z,102581.34
2018-09-29T02:48:46.640Z,102585.34
2018-09-29T02:51:15.295Z,102579.20
2018-09-29T02:53:43.774Z,102583.23
2018-09-29T02:56:11.920Z,102574.00
2018-09-29T02:58:40.074Z,102581.52
2018-09-29T03:01:08.580Z,102578.97
2018-09-29T03:03:36.718Z,102582.06
2018-09-29T03:06:05.211Z,102574.12
2018-09-29T03:08:33.354Z,102563.15
2018-09-29T03:11:02.116Z,102572.43
2018-09-29T03:13:30.573Z,102571.14
2018-09-29T03:15:58.744Z,102568.90
2018-09-29T03:18:26.896Z,102576.39
2018-09-29T03:20:55.633Z,102574.19
2018-09-29T03:23:24.022Z,102571.05
2018-09-29T03:25:52.514Z,102571.94
2018-09-29T03:28:20.993Z,102579.94
2018-09-29T03:30:49.145Z,102579.95
2018-09-29T03:33:17.908Z,102571.14
2018-09-29T03:35:46.316Z,102567.68
2018-09-29T03:38:14.461Z,102580.19
2018-09-29T03:40:42.942Z,102580.20
2018-09-29T03:43:11.413Z,102582.50
2018-09-29T03:45:39.893Z,102578.59
2018-09-29T03:48:08.669Z,102574.12
2018-09-29T03:50:36.812Z,102584.00
2018-09-29T03:53:05.209Z,102582.73
2018-09-29T03:55:33.776Z,102581.86
2018-09-29T03:58:02.183Z,102583.67
2018-09-29T04:00:30.742Z,102583.27
2018-09-29T04:02:58.890Z,102587.36
2018-09-29T04:05:27.301Z,102584.71
2018-09-29T04:07:55.457Z,102587.42
2018-09-29T04:10:23.929Z,102580.81
2018-09-29T04:12:52.437Z,102590.09
2018-09-29T04:15:20.901Z,102593.30
2018-09-29T04:17:49.070Z,102597.35
2018-09-29T04:20:17.227Z,102580.43
2018-09-29T04:22:45.718Z,102581.72
2018-09-29T04:25:14.185Z,102572.81
2018-09-29T04:27:42.325Z,102563.08
2018-09-29T04:30:10.465Z,102571.53
2018-09-29T04:32:38.972Z,102566.67
2018-09-29T04:35:07.143Z,102567.26
2018-09-29T04:37:35.621Z,102569.23
2018-09-29T04:40:04.129Z,102574.26
2018-09-29T04:42:32.687Z,102572.97
2018-09-29T04:47:35.644Z,102571.48
2018-09-29T04:50:04.057Z,102578.53
2018-09-29T04:52:32.573Z,102581.58
2018-09-29T04:55:01.002Z,102579.42
2018-09-29T04:57:29.161Z,102585.58
2018-09-29T04:59:57.397Z,102587.34
2018-09-29T05:02:26.168Z,102593.09
2018-09-29T05:04:54.300Z,102603.39
2018-09-29T05:07:22.448Z,102594.53
2018-09-29T05:09:50.925Z,102596.39
2018-09-29T05:12:19.435Z,102597.30
2018-09-29T05:14:48.149Z,102610.13
2018-09-29T05:17:16.633Z,102603.02
2018-09-29T05:19:45.117Z,102598.11
2018-09-29T05:22:13.630Z,102601.68
2018-09-29T05:24:41.841Z,102602.59
2018-09-29T05:27:09.988Z,102597.31
2018-09-29T05:29:38.784Z,102597.94
2018-09-29T05:32:07.281Z,102595.91
2018-09-29T05:34:35.752Z,102589.77
2018-09-29T05:37:04.241Z,102592.53
2018-09-29T05:39:32.388Z,102590.35
2018-09-29T05:42:01.173Z,102593.06
2018-09-29T05:45:37.608Z,102599.21
2018-09-29T05:48:06.003Z,102596.44
2018-09-29T05:50:34.341Z,102592.81
2018-09-29T05:53:02.599Z,102599.80
2018-09-29T05:55:30.723Z,102594.64
2018-09-29T05:57:59.197Z,102595.33
2018-09-29T06:00:31.296Z,102601.24
2018-09-29T06:03:01.509Z,102609.31
2018-09-29T06:05:30.068Z,102602.30
2018-09-29T06:07:58.897Z,102603.27
2018-09-29T06:10:27.588Z,102603.27
2018-09-29T06:12:55.749Z,102598.83
2018-09-29T06:15:23.886Z,102600.08
2018-09-29T06:17:52.654Z,102603.05
2018-09-29T06:20:21.104Z,102606.97
2018-09-29T06:22:49.860Z,102614.08
2018-09-29T06:25:18.333Z,102609.66
2018-09-29T06:27:46.535Z,102605.10
2018-09-29T06:30:15.168Z,102607.34
2018-09-29T06:32:43.585Z,102615.00
2018-09-29T06:35:12.191Z,102603.81
2018-09-29T06:37:40.632Z,102602.02
2018-09-29T06:40:09.132Z,102600.15
2018-09-29T06:42:37.916Z,102602.20
2018-09-29T06:45:07.409Z,102595.30
2018-09-29T06:47:35.729Z,102596.16
2018-09-29T06:50:04.029Z,102595.69
2018-09-29T06:52:32.832Z,102596.65
2018-09-29T06:55:01.076Z,102598.89
2018-09-29T06:57:29.509Z,102607.20
2018-09-29T06:59:58.103Z,102601.83
2018-09-29T07:02:26.504Z,102602.25
2018-09-29T07:04:54.647Z,102596.98
2018-09-29T07:07:23.267Z,102596.88
2018-09-29T07:09:51.615Z,102592.29
2018-09-29T07:12:20.344Z,102602.32
2018-09-29T07:14:48.822Z,102601.09
2018-09-29T07:17:17.481Z,102590.68
2018-09-29T07:19:45.772Z,102595.11
2018-09-29T07:22:13.904Z,102604.14
2018-09-29T07:24:42.384Z,102611.00
2018-09-29T07:27:11.215Z,102602.94
2018-09-29T07:29:39.992Z,102600.59
2018-09-29T07:32:12.327Z,102607.16
2018-09-29T07:34:43.104Z,102602.66
2018-09-29T07:37:14.327Z,102606.33
2018-09-29T07:39:44.465Z,102607.00
2018-09-29T07:42:13.015Z,102599.76
2018-09-29T07:44:41.496Z,102597.13
2018-09-29T07:47:09.921Z,102589.80
2018-09-29T07:49:45.292Z,102587.10
2018-09-29T07:52:13.717Z,102583.41
2018-09-29T07:54:41.880Z,102589.86
2018-09-29T07:57:13.260Z,102586.84
2018-09-29T07:59:42.193Z,102597.61
2018-09-29T08:02:14.406Z,102602.08
2018-09-29T08:04:43.084Z,102602.60
2018-09-29T08:07:15.056Z,102595.47
2018-09-29T08:09:46.912Z,102591.17
2018-09-29T08:12:15.401Z,102593.73
2018-09-29T08:15:43.359Z,102594.84
2018-09-29T08:18:15.321Z,102597.47
2018-09-29T08:20:44.077Z,102600.80
2018-09-29T08:23:12.224Z,102597.42
2018-09-29T08:25:40.364Z,102598.09
2018-09-29T08:28:08.813Z,102601.30
2018-09-29T08:30:43.056Z,102595.70
2018-09-29T08:33:11.216Z,102598.02
2018-09-29T08:35:39.349Z,102598.29
2018-09-29T08:38:08.157Z,102598.39
2018-09-29T08:40:36.665Z,102601.75
2018-09-29T08:43:04.893Z,102600.44
2018-09-29T08:45:33.369Z,102600.03
2018-09-29T08:48:01.781Z,102596.57
2018-09-29T08:50:30.449Z,102599.78
2018-09-29T08:52:59.674Z,102599.97
2018-09-29T08:55:32.778Z,102598.51
2018-09-29T08:58:01.613Z,102595.72
2018-09-29T09:00:30.217Z,102597.47
2018-09-29T09:02:58.881Z,102593.07
2018-09-29T09:05:30.906Z,102585.25
2018-09-29T09:07:59.621Z,102591.84
2018-09-29T09:10:28.185Z,102596.39
2018-09-29T09:12:56.453Z,102597.02
2018-09-29T09:15:25.501Z,102595.77
2018-09-29T09:17:58.660Z,102587.14
2018-09-29T09:20:32.863Z,102585.73
2018-09-29T09:23:01.236Z,102582.41
2018-09-29T09:25:29.520Z,102586.27
2018-09-29T09:27:57.900Z,102576.58
2018-09-29T09:30:26.068Z,102570.92
2018-09-29T09:32:58.664Z,102570.51
2018-09-29T09:35:28.742Z,102569.81
2018-09-29T09:37:57.208Z,102563.95
2018-09-29T09:40:25.457Z,102565.23
2018-09-29T09:42:54.213Z,102567.11
2018-09-29T09:45:22.352Z,102565.23
2018-09-29T09:47:50.820Z,102567.63
2018-09-29T09:50:20.593Z,102559.83
2018-09-29T09:52:49.724Z,102565.79
2018-09-29T09:55:25.170Z,102564.43
2018-09-29T09:57:54.032Z,102551.42
2018-09-29T10:00:33.512Z,102553.41
2018-09-29T10:03:07.277Z,102544.65
2018-09-29T10:05:35.433Z,102540.81
2018-09-29T10:08:04.181Z,102537.44
2018-09-29T10:10:32.907Z,102543.47
2018-09-29T10:13:01.104Z,102538.95
2018-09-29T10:15:29.605Z,102536.27
2018-09-29T10:17:58.365Z,102534.77
2018-09-29T10:20:26.841Z,102531.36
2018-09-29T10:22:55.328Z,102522.83
2018-09-29T10:25:25.730Z,102525.07
2018-09-29T10:27:54.888Z,102514.84
2018-09-29T10:30:23.947Z,102511.46
2018-09-29T10:32:52.083Z,102507.97
2018-09-29T10:35:20.316Z,102501.77
2018-09-29T10:37:49.243Z,102501.31
2018-09-29T10:40:20.112Z,102497.69
2018-09-29T10:42:48.238Z,102503.11
2018-09-29T10:45:16.771Z,102503.14
2018-09-29T10:47:45.104Z,102495.81
2018-09-29T10:50:13.655Z,102491.44
2018-09-29T10:52:42.593Z,102487.11
2018-09-29T10:55:10.766Z,102485.21
2018-09-29T10:57:39.400Z,102484.20
2018-09-29T11:00:08.517Z,102476.31
2018-09-29T11:02:37.105Z,102467.47
2018-09-29T11:05:05.452Z,102467.92
2018-09-29T11:07:35.399Z,102467.02
2018-09-29T11:10:04.967Z,102458.17
2018-09-29T11:12:33.460Z,102456.69
2018-09-29T11:15:02.172Z,102457.04
2018-09-29T11:17:31.324Z,102454.84
2018-09-29T11:19:59.966Z,102447.33
2018-09-29T11:22:29.631Z,102446.34
2018-09-29T11:24:57.945Z,102439.50
2018-09-29T11:27:26.713Z,102439.65
2018-09-29T11:29:55.487Z,102435.95
2018-09-29T11:32:24.768Z,102435.64
2018-09-29T11:34:53.865Z,102435.06
2018-09-29T11:37:22.273Z,102430.63
2018-09-29T11:39:50.397Z,102425.42
2018-09-29T11:42:18.527Z,102420.58
2018-09-29T11:44:47.017Z,102418.99
2018-09-29T11:47:15.581Z,102411.34
2018-09-29T11:49:43.718Z,102403.89
2018-09-29T11:52:12.197Z,102405.33
2018-09-29T11:54:40.667Z,102398.53
2018-09-29T11:57:08.827Z,102391.39
2018-09-29T11:59:38.062Z,102388.13
2018-09-29T12:02:06.370Z,102386.02
2018-09-29T12:04:35.032Z,102374.64
2018-09-29T12:07:03.437Z,102373.29
2018-09-29T12:09:31.749Z,102369.30
2018-09-29T12:12:00.385Z,102364.61
2018-09-29T12:14:29.205Z,102361.20
2018-09-29T12:16:57.423Z,102357.08
2018-09-29T12:19:26.209Z,102347.23
2018-09-29T12:21:54.820Z,102347.14
2018-09-29T12:24:23.592Z,102336.42
2018-09-29T12:26:52.585Z,102337.52
2018-09-29T12:29:20.809Z,102325.05
2018-09-29T12:31:50.437Z,102313.58
2018-09-29T12:34:18.580Z,102316.64
2018-09-29T12:36:47.165Z,102311.92
2018-09-29T12:39:16.513Z,102308.09
2018-09-29T12:41:47.136Z,102299.85
2018-09-29T12:44:15.736Z,102296.22
2018-09-29T12:46:44.616Z,102299.15
2018-09-29T12:49:13.795Z,102298.46
2018-09-29T12:51:42.017Z,102290.80
2018-09-29T12:54:11.001Z,102284.63
2018-09-29T12:56:39.472Z,102281.81
2018-09-29T12:59:19.100Z,102271.92
2018-09-29T13:01:47.880Z,102274.56
2018-09-29T13:04:16.382Z,102266.94
2018-09-29T13:06:44.959Z,102277.09
2018-09-29T13:09:13.837Z,102269.97
2018-09-29T13:11:42.573Z,102266.89
2018-09-29T13:14:11.052Z,102257.33
2018-09-29T13:16:39.606Z,102253.84
2018-09-29T13:19:09.308Z,102250.89
2018-09-29T13:21:39.161Z,102252.24
2018-09-29T13:24:09.969Z,102248.48
2018-09-29T13:26:39.049Z,102256.85
2018-09-29T13:29:09.745Z,102249.44
2018-09-29T13:31:40.018Z,102242.30
2018-09-29T13:34:10.041Z,102245.70
2018-09-29T13:36:39.104Z,102243.50
2018-09-29T13:39:13.785Z,102237.34
2018-09-29T13:41:42.557Z,102228.06
2018-09-29T13:44:14.440Z,102226.06
2018-09-29T13:46:42.666Z,102224.58
2018-09-29T13:49:13.970Z,102226.03
2018-09-29T13:51:43.753Z,102225.11
2018-09-29T13:54:12.533Z,102222.95
2018-09-29T13:56:40.973Z,102214.77
2018-09-29T13:59:12.420Z,102211.30
2018-09-29T14:01:44.994Z,102205.94
2018-09-29T14:04:16.333Z,102212.19
2018-09-29T14:06:45.769Z,102195.97
2018-09-29T14:09:14.325Z,102197.09
2018-09-29T14:11:46.418Z,102198.82
2018-09-29T14:14:16.624Z,102191.67
2018-09-29T14:16:45.149Z,102184.62
2018-09-29T14:19:14.945Z,102178.98
2018-09-29T14:21:44.206Z,102173.52
2018-09-29T14:24:13.008Z,102177.59
2018-09-29T14:26:41.757Z,102180.80
2018-09-29T14:29:12.814Z,102162.78
2018-09-29T14:31:41.309Z,102152.88
2018-09-29T14:34:13.046Z,102160.81
2018-09-29T14:36:42.458Z,102160.44
2018-09-29T14:39:11.187Z,102130.66
2018-09-29T14:41:40.315Z,102144.49
2018-09-29T14:44:10.012Z,102143.06
2018-09-29T14:46:38.961Z,102139.26
2018-09-29T14:49:08.789Z,102127.97
2018-09-29T14:51:37.766Z,102130.41
2018-09-29T14:54:06.799Z,102128.69
2018-09-29T14:56:35.349Z,102125.13
2018-09-29T14:59:05.102Z,102125.84
2018-09-29T15:01:33.713Z,102127.33
2018-09-29T15:04:02.296Z,102122.66
2018-09-29T15:06:31.223Z,102118.37
2018-09-29T15:08:59.981Z,102111.16
2018-09-29T15:11:28.453Z,102105.48
2018-09-29T15:13:57.188Z,102108.78
2018-09-29T15:16:25.693Z,102109.48
2018-09-29T15:18:53.899Z,102105.58
2018-09-29T15:21:22.373Z,102102.86
2018-09-29T15:23:50.541Z,102102.94
2018-09-29T15:26:19.033Z,102094.45
2018-09-29T15:28:47.719Z,102090.35
2018-09-29T15:31:16.140Z,102082.86
2018-09-29T15:33:44.301Z,102084.44
2018-09-29T15:36:13.391Z,102083.14
2018-09-29T15:38:42.052Z,102080.45
2018-09-29T15:41:10.483Z,102079.61
2018-09-29T15:43:38.956Z,102077.80
2018-09-29T15:46:07.313Z,102076.22
2018-09-29T15:48:36.131Z,102082.83
2018-09-29T15:51:04.444Z,102071.31
2018-09-29T15:53:33.225Z,102065.27
2018-09-29T15:56:01.689Z,102062.88
2018-09-29T15:58:30.446Z,102064.69
2018-09-29T16:00:58.928Z,102062.03
2018-09-29T16:03:27.501Z,102054.90
2018-09-29T16:05:56.215Z,102058.94
2018-09-29T16:08:24.697Z,102053.41
2018-09-29T16:10:53.072Z,102057.63
2018-09-29T16:13:21.301Z,102057.72
2018-09-29T16:15:49.822Z,102052.35
2018-09-29T16:18:18.247Z,102049.89
2018-09-29T16:20:46.753Z,102059.19
2018-09-29T16:23:15.001Z,102051.78
2018-09-29T16:25:43.169Z,102047.01
2018-09-29T16:28:11.341Z,102043.48
2018-09-29T16:30:39.833Z,102040.45
2018-09-29T16:33:09.555Z,102039.44
2018-09-29T16:35:38.033Z,102038.03
2018-09-29T16:38:06.181Z,102037.02
2018-09-29T16:40:34.689Z,102028.55
2018-09-29T16:43:03.449Z,102016.67
2018-09-29T16:45:32.232Z,102025.66
2018-09-29T16:48:00.385Z,102022.70
2018-09-29T16:50:28.905Z,102020.97
2018-09-29T16:52:57.098Z,102022.65
2018-09-29T16:55:25.606Z,102020.55
2018-09-29T16:57:54.390Z,102016.50
2018-09-29T17:00:26.889Z,102024.26
2018-09-29T17:02:55.092Z,102022.99
2018-09-29T17:05:23.289Z,102023.41
2018-09-29T17:07:51.479Z,102021.86
2018-09-29T17:10:19.659Z,102018.27
2018-09-29T17:12:48.990Z,102018.88
2018-09-29T17:15:18.185Z,102015.44
2018-09-29T17:17:46.672Z,102019.27
2018-09-29T17:20:15.705Z,102023.61
2018-09-29T17:22:44.152Z,102025.70
2018-09-29T17:25:12.438Z,102019.12
2018-09-29T17:27:41.204Z,102021.84
2018-09-29T17:30:09.861Z,102018.06
2018-09-29T17:32:38.416Z,102012.31
2018-09-29T17:35:06.623Z,102027.95
2018-09-29T17:37:36.102Z,102024.97
2018-09-29T17:40:07.553Z,102025.57
2018-09-29T17:42:36.472Z,102024.03
2018-09-29T17:45:05.000Z,102032.02
2018-09-29T17:47:38.538Z,102023.11
2018-09-29T17:50:14.465Z,102022.70
2018-09-29T17:52:43.083Z,102021.05
2018-09-29T17:55:11.888Z,102017.80
2018-09-29T17:57:40.140Z,102019.48
2018-09-29T18:00:09.809Z,102013.34
2018-09-29T18:02:38.117Z,102007.58
2018-09-29T18:05:06.437Z,102004.38
2018-09-29T18:07:34.936Z,102017.18
2018-09-29T18:10:03.701Z,102016.30
2018-09-29T18:12:32.756Z,102014.36
2018-09-29T18:15:01.393Z,102015.45
2018-09-29T18:17:29.541Z,102016.92
2018-09-29T18:19:58.174Z,102017.75
2018-09-29T18:22:26.680Z,102013.44
2018-09-29T18:24:55.193Z,102013.59
2018-09-29T18:27:23.672Z,102013.26
2018-09-29T18:29:52.169Z,102017.94
2018-09-29T18:32:20.480Z,102019.80
2018-09-29T18:34:48.748Z,102019.45
2018-09-29T18:37:17.543Z,102020.56
2018-09-29T18:39:46.558Z,102018.70
2018-09-29T18:42:16.858Z,102013.41
2018-09-29T18:44:47.905Z,102014.88
2018-09-29T18:47:18.753Z,102017.27
2018-09-29T18:49:47.628Z,102015.53
2018-09-29T18:52:16.119Z,102006.18
2018-09-29T18:54:44.245Z,102007.45
2018-09-29T18:57:12.831Z,101998.70
2018-09-29T18:59:41.696Z,101995.66
2018-09-29T19:02:10.150Z,102003.42
2018-09-29T19:04:38.387Z,101991.56
2018-09-29T19:07:06.865Z,101991.38
2018-09-29T19:09:35.264Z,101991.17
2018-09-29T19:12:03.776Z,101987.31
2018-09-29T19:14:32.293Z,101991.93
2018-09-29T19:17:00.777Z,101992.03
2018-09-29T19:19:29.497Z,101998.38
2018-09-29T19:21:57.995Z,101995.50
2018-09-29T19:24:26.446Z,101989.32
2018-09-29T19:26:54.614Z,101985.23
2018-09-29T19:29:22.749Z,101988.52
2018-09-29T19:31:51.237Z,101990.31
2018-09-29T19:34:19.705Z,101978.95
2018-09-29T19:36:48.068Z,101976.70
2018-09-29T19:39:17.048Z,101973.42
2018-09-29T19:41:45.726Z,101972.24
2018-09-29T19:44:14.220Z,101967.34
2018-09-29T19:46:42.532Z,101963.47
2018-09-29T19:49:14.142Z,101968.77
2018-09-29T19:51:44.048Z,101974.45
2018-09-29T19:54:12.772Z,101973.42
2018-09-29T19:56:40.952Z,101970.33
2018-09-29T20:00:04.005Z,101966.73
2018-09-29T20:02:36.365Z,101962.34
2018-09-29T20:05:04.873Z,101958.45
2018-09-29T20:07:33.659Z,101952.44
2018-09-29T20:10:02.189Z,101962.70
2018-09-29T20:12:30.854Z,101958.92
2018-09-29T20:14:59.386Z,101959.97
2018-09-29T20:17:28.165Z,101951.66
2018-09-29T20:19:56.503Z,101952.22
2018-09-29T20:22:25.069Z,101954.91
2018-09-29T20:24:53.866Z,101951.53
2018-09-29T20:27:22.602Z,101953.80
2018-09-29T20:29:51.100Z,101951.16
2018-09-29T20:32:19.644Z,101945.74
2018-09-29T20:34:48.066Z,101937.23
2018-09-29T20:37:16.529Z,101937.09
2018-09-29T20:39:45.216Z,101924.38
2018-09-29T20:42:13.728Z,101922.80
2018-09-29T20:44:42.122Z,101921.31
2018-09-29T20:47:10.873Z,101918.44
2018-09-29T20:49:39.032Z,101915.25
2018-09-29T20:52:07.590Z,101904.59
2018-09-29T20:54:35.761Z,101914.66
2018-09-29T20:57:04.139Z,101911.75
2018-09-29T20:59:32.944Z,101915.94
2018-09-29T21:02:01.094Z,101905.49
2018-09-29T21:04:29.573Z,101900.76
2018-09-29T21:07:00.151Z,101896.33
2018-09-29T21:09:36.294Z,101892.84
2018-09-29T21:12:05.010Z,101892.39
2018-09-29T21:14:33.549Z,101895.14
2018-09-29T21:17:02.124Z,101897.92
2018-09-29T21:19:30.603Z,101894.73
2018-09-29T21:21:58.907Z,101891.05
2018-09-29T21:24:27.955Z,101887.41
2018-09-29T21:26:56.328Z,101886.12
2018-09-29T21:29:24.760Z,101882.28
2018-09-29T21:31:52.893Z,101889.16
2018-09-29T21:34:21.124Z,101883.72
2018-09-29T21:36:49.925Z,101883.16
2018-09-29T21:39:18.133Z,101881.36
2018-09-29T21:41:46.881Z,101879.95
2018-09-29T21:44:15.030Z,101881.68
2018-09-29T21:46:43.165Z,101887.87
2018-09-29T21:49:11.316Z,101876.33
2018-09-29T21:51:39.954Z,101875.44
2018-09-29T21:54:08.442Z,101869.61
2018-09-29T21:56:37.121Z,101860.30
2018-09-29T21:59:12.877Z,101862.98
2018-09-29T22:01:41.376Z,101847.88
2018-09-29T22:04:10.037Z,101854.59
2018-09-29T22:06:38.491Z,101860.20
2018-09-29T22:09:07.832Z,101852.72
2018-09-29T22:11:36.347Z,101850.19
2018-09-29T22:14:05.064Z,101847.19
2018-09-29T22:16:33.531Z,101844.20
2018-09-29T22:19:02.100Z,101846.48
2018-09-29T22:21:30.866Z,101842.60
2018-09-29T22:23:58.996Z,101843.64
2018-09-29T22:26:27.129Z,101842.44
2018-09-29T22:28:55.567Z,101836.84
2018-09-29T22:31:24.033Z,101836.38
2018-09-29T22:33:52.787Z,101828.64
2018-09-29T22:36:21.201Z,101836.13
2018-09-29T22:38:49.672Z,101826.70
2018-09-29T22:41:18.113Z,101818.03
2018-09-29T22:43:46.240Z,101810.70
2018-09-29T22:46:14.696Z,101805.97
2018-09-29T22:48:42.861Z,101805.25
2018-09-29T22:51:11.294Z,101803.34
2018-09-29T22:53:39.436Z,101792.58
2018-09-29T22:56:08.278Z,101794.37
2018-09-29T22:58:36.408Z,101799.32
2018-09-29T23:01:05.191Z,101791.19
2018-09-29T23:03:33.673Z,101786.05
2018-09-29T23:06:02.061Z,101792.31
2018-09-29T23:08:30.689Z,101790.17
2018-09-29T23:10:58.965Z,101783.32
2018-09-29T23:13:27.613Z,101786.22
2018-09-29T23:15:56.009Z,101781.70
2018-09-29T23:18:24.729Z,101774.86
2018-09-29T23:20:53.428Z,101784.49
2018-09-29T23:23:22.210Z,101776.67
2018-09-29T23:25:50.397Z,101770.53
2018-09-29T23:28:19.172Z,101780.12
2018-09-29T23:30:47.676Z,101764.75
2018-09-29T23:33:15.920Z,101767.88
2018-09-29T23:35:44.392Z,101760.41
2018-09-29T23:38:12.875Z,101759.66
2018-09-29T23:40:41.058Z,101760.34
2018-09-29T23:43:10.447Z,101762.91
2018-09-29T23:45:39.207Z,101753.48
2018-09-29T23:48:08.022Z,101747.48
2018-09-29T23:50:36.481Z,101742.73
2018-09-29T23:53:05.161Z,101742.48
2018-09-29T23:55:33.682Z,101735.92
2018-09-29T23:58:02.502Z,101736.45
